Columbus, Ohio
Traffic Map
Current Weather Conditions
Columbus, Ohio
Clear
Clear
51°
Feels Like: 51°
Wind Chill: 51° Ceiling: Unl
Heat Index: 51° Visibility: 9mi
Dew Point: 50° Wind: 3mph
Humidity: 96% Direction: 100° (E)
Pressure: 30.23in Gusts: 0mph
Raw Report DataKCMH 200651Z 10003KT 9SM CLR 11/10 A3023 RMK AO2 SLP234 T01060100
Traffic Incident Summary
Active as of:
Severity:
Category:
InformationThere was an issue retrieving the traffic information for this location. Please try a different location or try again shortly.
Advertisements